createdAt,value
2022-09-25T00:01:10.764Z,14.95
2022-09-25T00:03:40.845Z,14.97
2022-09-25T00:06:11.117Z,14.96
2022-09-25T00:08:40.103Z,14.95
2022-09-25T00:11:09.829Z,14.96
2022-09-25T00:13:38.226Z,14.95
2022-09-25T00:16:06.489Z,14.95
2022-09-25T00:18:51.976Z,14.94
2022-09-25T00:21:21.191Z,14.93
2022-09-25T00:23:48.997Z,14.90
2022-09-25T00:26:17.993Z,14.90
2022-09-25T00:28:45.772Z,14.88
2022-09-25T00:31:21.225Z,14.88
2022-09-25T00:33:49.129Z,14.83
2022-09-25T00:36:16.911Z,14.83
2022-09-25T00:38:46.244Z,14.84
2022-09-25T00:41:14.056Z,14.82
2022-09-25T00:43:44.527Z,14.82
2022-09-25T00:46:16.755Z,14.83
2022-09-25T00:48:50.707Z,14.80
2022-09-25T00:51:29.777Z,14.81
2022-09-25T00:54:04.432Z,14.79
2022-09-25T00:56:37.438Z,14.80
2022-09-25T00:59:06.830Z,14.77
2022-09-25T01:01:34.789Z,14.76
2022-09-25T01:04:03.760Z,14.76
2022-09-25T01:06:33.412Z,14.78
2022-09-25T01:09:03.188Z,14.78
2022-09-25T01:11:32.062Z,14.74
2022-09-25T01:14:03.105Z,14.76
2022-09-25T01:16:38.477Z,14.75
2022-09-25T01:19:18.191Z,14.74
2022-09-25T01:21:52.767Z,14.71
2022-09-25T01:25:03.755Z,14.63
2022-09-25T01:27:59.454Z,14.65
2022-09-25T01:30:34.675Z,14.65
2022-09-25T01:33:08.873Z,14.65
2022-09-25T01:35:42.980Z,14.65
2022-09-25T01:38:21.123Z,14.63
2022-09-25T01:40:57.568Z,14.63
2022-09-25T01:43:32.095Z,14.62
2022-09-25T01:46:05.798Z,14.60
2022-09-25T01:48:34.756Z,14.58
2022-09-25T01:51:06.565Z,14.57
2022-09-25T01:53:39.284Z,14.54
2022-09-25T01:56:12.474Z,14.53
2022-09-25T01:58:44.178Z,14.53
2022-09-25T02:01:23.651Z,14.53
2022-09-25T02:03:57.127Z,14.51
2022-09-25T02:06:26.181Z,14.49
2022-09-25T02:12:00.373Z,14.45
2022-09-25T02:14:31.930Z,14.42
2022-09-25T02:17:04.094Z,14.42
2022-09-25T02:19:49.628Z,14.36
2022-09-25T02:22:22.384Z,14.36
2022-09-25T02:24:58.882Z,14.34
2022-09-25T02:27:28.638Z,14.33
2022-09-25T02:29:58.212Z,14.33
2022-09-25T02:32:30.766Z,14.35
2022-09-25T02:35:00.908Z,14.31
2022-09-25T02:37:29.613Z,14.33
2022-09-25T02:40:00.302Z,14.34
2022-09-25T02:42:36.564Z,14.36
2022-09-25T02:45:13.451Z,14.35
2022-09-25T02:47:51.026Z,14.35
2022-09-25T02:50:25.035Z,14.35
2022-09-25T02:52:59.982Z,14.34
2022-09-25T02:55:35.586Z,14.35
2022-09-25T02:58:09.270Z,14.35
2022-09-25T03:00:39.590Z,14.34
2022-09-25T03:03:13.747Z,14.35
2022-09-25T03:05:42.426Z,14.32
2022-09-25T03:08:28.489Z,14.32
2022-09-25T03:10:56.379Z,14.30
2022-09-25T03:13:31.327Z,14.32
2022-09-25T03:16:01.999Z,14.32
2022-09-25T03:18:32.166Z,14.31
2022-09-25T03:21:00.299Z,14.29
2022-09-25T03:23:28.034Z,14.29
2022-09-25T03:25:56.543Z,14.29
2022-09-25T03:28:24.607Z,14.29
2022-09-25T03:31:01.106Z,14.31
2022-09-25T03:33:32.327Z,14.29
2022-09-25T03:36:10.800Z,14.29
2022-09-25T03:38:38.949Z,14.25
2022-09-25T03:41:09.376Z,14.23
2022-09-25T03:43:37.518Z,14.20
2022-09-25T03:46:05.969Z,14.18
2022-09-25T03:48:36.033Z,14.18
2022-09-25T03:51:04.574Z,14.16
2022-09-25T03:53:33.370Z,14.13
2022-09-25T03:56:01.641Z,14.13
2022-09-25T03:58:29.766Z,14.13
2022-09-25T04:00:58.126Z,14.12
2022-09-25T04:03:27.924Z,14.12
2022-09-25T04:05:57.708Z,14.12
2022-09-25T04:08:26.973Z,14.10
2022-09-25T04:10:56.257Z,14.09
2022-09-25T04:13:24.547Z,14.09
2022-09-25T04:15:52.338Z,14.07
2022-09-25T04:18:20.594Z,14.06
2022-09-25T04:20:48.689Z,14.05
2022-09-25T04:23:18.474Z,14.04
2022-09-25T04:25:46.521Z,14.02
2022-09-25T04:28:14.267Z,14.00
2022-09-25T04:30:42.018Z,13.99
2022-09-25T04:33:27.978Z,14.00
2022-09-25T04:35:56.546Z,13.96
2022-09-25T04:38:25.782Z,13.97
2022-09-25T04:40:53.665Z,13.96
2022-09-25T04:43:21.574Z,13.95
2022-09-25T04:45:50.635Z,13.93
2022-09-25T04:48:18.453Z,13.93
2022-09-25T04:50:49.418Z,13.94
2022-09-25T04:53:17.448Z,13.91
2022-09-25T04:55:48.066Z,13.91
2022-09-25T04:58:15.853Z,13.88
2022-09-25T05:00:43.610Z,13.87
2022-09-25T05:03:11.489Z,13.85
2022-09-25T05:05:39.333Z,13.83
2022-09-25T05:08:07.394Z,13.82
2022-09-25T05:10:35.930Z,13.81
2022-09-25T05:13:06.192Z,13.82
2022-09-25T05:15:34.606Z,13.79
2022-09-25T05:18:03.769Z,13.79
2022-09-25T05:20:31.654Z,13.78
2022-09-25T05:23:00.141Z,13.79
2022-09-25T05:25:28.987Z,13.77
2022-09-25T05:27:59.461Z,13.77
2022-09-25T05:30:30.773Z,13.76
2022-09-25T05:32:59.288Z,13.72
2022-09-25T05:35:29.370Z,13.73
2022-09-25T05:37:57.198Z,13.70
2022-09-25T05:40:25.368Z,13.70
2022-09-25T05:42:55.136Z,13.70
2022-09-25T05:45:24.098Z,13.69
2022-09-25T05:48:02.948Z,13.70
2022-09-25T05:50:32.285Z,13.66
2022-09-25T05:53:00.812Z,13.67
2022-09-25T05:55:29.349Z,13.67
2022-09-25T05:58:01.184Z,13.69
2022-09-25T06:00:29.134Z,13.62
2022-09-25T06:02:56.898Z,13.65
2022-09-25T06:05:26.137Z,13.66
2022-09-25T06:07:54.545Z,13.65
2022-09-25T06:10:22.604Z,13.64
2022-09-25T06:12:50.421Z,13.64
2022-09-25T06:15:18.217Z,13.65
2022-09-25T06:17:45.975Z,13.66
2022-09-25T06:20:16.273Z,13.65
2022-09-25T06:22:45.691Z,13.67
2022-09-25T06:25:15.734Z,13.66
2022-09-25T06:27:43.658Z,13.67
2022-09-25T06:30:12.265Z,13.70
2022-09-25T06:32:40.038Z,13.72
2022-09-25T06:35:08.187Z,13.75
2022-09-25T06:37:35.935Z,13.78
2022-09-25T06:40:05.675Z,13.85
2022-09-25T06:42:35.199Z,13.91
2022-09-25T06:45:03.045Z,14.01
2022-09-25T06:47:30.792Z,14.16
2022-09-25T06:49:58.546Z,14.36
2022-09-25T06:52:27.661Z,14.61
2022-09-25T06:54:55.425Z,14.87
2022-09-25T06:57:24.559Z,15.19
2022-09-25T06:59:52.300Z,15.50
2022-09-25T07:02:40.001Z,15.86
2022-09-25T07:05:08.780Z,16.24
2022-09-25T07:07:36.567Z,16.60
2022-09-25T07:10:04.799Z,16.93
2022-09-25T07:12:34.531Z,17.32
2022-09-25T07:15:02.389Z,17.60
2022-09-25T07:17:30.137Z,17.85
2022-09-25T07:19:57.924Z,18.02
2022-09-25T07:22:25.637Z,18.13
2022-09-25T07:24:53.486Z,18.18
2022-09-25T07:27:21.185Z,18.19
2022-09-25T07:29:50.294Z,18.17
2022-09-25T07:32:18.062Z,18.09
2022-09-25T07:34:46.192Z,18.01
2022-09-25T07:37:13.920Z,17.94
2022-09-25T07:39:41.931Z,17.85
2022-09-25T07:42:09.701Z,17.76
2022-09-25T07:44:38.701Z,17.66
2022-09-25T07:47:08.899Z,17.60
2022-09-25T07:49:36.841Z,17.51
2022-09-25T07:52:06.128Z,17.44
2022-09-25T07:54:34.551Z,17.39
2022-09-25T07:57:02.317Z,17.38
2022-09-25T07:59:30.140Z,17.39
2022-09-25T08:01:59.002Z,17.40
2022-09-25T08:04:28.248Z,17.43
2022-09-25T08:06:55.981Z,17.43
2022-09-25T08:09:23.780Z,17.44
2022-09-25T08:11:51.773Z,17.47
2022-09-25T08:14:22.199Z,17.46
2022-09-25T08:16:55.793Z,17.43
2022-09-25T08:19:24.138Z,17.45
2022-09-25T08:21:53.585Z,17.47
2022-09-25T08:24:21.379Z,17.47
2022-09-25T08:26:50.176Z,17.50
2022-09-25T08:29:18.525Z,17.54
2022-09-25T08:31:46.484Z,17.59
2022-09-25T08:34:39.584Z,17.66
2022-09-25T08:37:07.645Z,17.73
2022-09-25T08:39:35.460Z,17.81
2022-09-25T08:42:03.615Z,17.90
2022-09-25T08:44:37.334Z,17.99
2022-09-25T08:47:40.478Z,18.07
2022-09-25T08:50:12.922Z,18.07
2022-09-25T08:52:45.310Z,18.10
2022-09-25T08:55:18.051Z,18.09
2022-09-25T08:57:47.301Z,18.07
2022-09-25T09:00:21.177Z,18.05
2022-09-25T09:02:54.582Z,17.98
2022-09-25T09:05:27.644Z,17.94
2022-09-25T09:08:01.480Z,17.89
2022-09-25T09:10:35.102Z,17.87
2022-09-25T09:13:21.889Z,17.85
2022-09-25T09:15:57.239Z,17.84
2022-09-25T09:18:36.003Z,17.84
2022-09-25T09:21:11.624Z,17.84
2022-09-25T09:23:50.814Z,17.84
2022-09-25T09:26:25.998Z,17.84
2022-09-25T09:29:20.972Z,17.86
2022-09-25T09:31:58.083Z,17.90
2022-09-25T09:35:04.159Z,17.98
2022-09-25T09:37:44.885Z,18.04
2022-09-25T09:40:25.334Z,18.11
2022-09-25T09:43:06.887Z,18.22
2022-09-25T09:45:45.234Z,18.31
2022-09-25T09:48:20.174Z,18.39
2022-09-25T09:50:53.094Z,18.45
2022-09-25T09:53:34.171Z,18.49
2022-09-25T09:56:09.366Z,18.49
2022-09-25T09:58:45.897Z,18.50
2022-09-25T10:01:36.500Z,18.48
2022-09-25T10:04:07.109Z,18.44
2022-09-25T10:06:39.276Z,18.43
2022-09-25T10:09:08.843Z,18.43
2022-09-25T10:11:38.791Z,18.47
2022-09-25T10:14:07.038Z,18.50
2022-09-25T10:16:37.019Z,18.56
2022-09-25T10:19:11.914Z,18.65
2022-09-25T10:21:43.334Z,18.71
2022-09-25T10:24:11.335Z,18.77
2022-09-25T10:26:41.537Z,18.83
2022-09-25T10:29:27.823Z,18.88
2022-09-25T10:32:00.955Z,18.94
2022-09-25T10:34:30.101Z,18.98
2022-09-25T10:36:58.731Z,19.06
2022-09-25T10:39:44.170Z,19.14
2022-09-25T10:42:38.767Z,19.20
2022-09-25T10:45:41.365Z,19.18
2022-09-25T10:48:48.504Z,19.28
2022-09-25T10:51:18.556Z,19.33
2022-09-25T10:53:47.348Z,19.38
2022-09-25T10:56:19.364Z,19.43
2022-09-25T10:58:55.220Z,19.42
2022-09-25T11:01:31.806Z,19.47
2022-09-25T11:04:00.614Z,19.45
2022-09-25T11:06:32.998Z,19.47
2022-09-25T11:09:09.015Z,19.48
2022-09-25T11:11:39.379Z,19.52
2022-09-25T11:14:18.816Z,19.55
2022-09-25T11:16:49.708Z,19.58
2022-09-25T11:19:23.524Z,19.61
2022-09-25T11:22:00.278Z,19.62
2022-09-25T11:24:40.455Z,19.63
2022-09-25T11:27:15.293Z,19.64
2022-09-25T11:29:54.467Z,19.65
2022-09-25T11:32:31.008Z,19.66
2022-09-25T11:35:16.177Z,19.70
2022-09-25T11:37:52.565Z,19.71
2022-09-25T11:40:49.392Z,19.76
2022-09-25T11:43:26.092Z,19.78
2022-09-25T11:46:08.277Z,19.84
2022-09-25T11:48:47.138Z,19.86
2022-09-25T11:51:24.994Z,19.92
2022-09-25T11:54:31.993Z,19.95
2022-09-25T11:57:01.897Z,19.96
2022-09-25T11:59:44.750Z,19.99
2022-09-25T12:02:27.910Z,19.99
2022-09-25T12:05:10.697Z,19.99
2022-09-25T12:07:52.664Z,19.68
2022-09-25T12:10:37.465Z,19.96
2022-09-25T12:13:13.471Z,19.98
2022-09-25T12:15:53.672Z,20.01
2022-09-25T12:18:43.684Z,20.00
2022-09-25T12:21:17.623Z,19.94
2022-09-25T12:23:51.702Z,19.95
2022-09-25T12:26:30.621Z,19.94
2022-09-25T12:29:14.070Z,19.94
2022-09-25T12:31:53.556Z,19.93
2022-09-25T12:34:40.351Z,19.96
2022-09-25T12:37:23.105Z,19.99
2022-09-25T12:39:59.120Z,20.04
2022-09-25T12:42:38.019Z,20.09
2022-09-25T12:45:17.349Z,20.14
2022-09-25T12:47:51.752Z,20.16
2022-09-25T12:50:30.543Z,20.16
2022-09-25T12:53:06.011Z,20.15
2022-09-25T12:55:40.071Z,20.15
2022-09-25T12:58:18.540Z,20.13
2022-09-25T13:00:50.534Z,20.08
2022-09-25T13:03:25.192Z,20.05
2022-09-25T13:06:17.417Z,20.00
2022-09-25T13:08:52.888Z,19.95
2022-09-25T13:11:35.992Z,19.95
2022-09-25T13:14:10.465Z,19.90
2022-09-25T13:16:39.907Z,19.83
2022-09-25T13:19:12.851Z,19.84
2022-09-25T13:21:43.951Z,19.82
2022-09-25T13:24:15.698Z,19.79
2022-09-25T13:26:47.910Z,19.76
2022-09-25T13:29:24.132Z,19.74
2022-09-25T13:31:53.465Z,19.72
2022-09-25T13:34:24.470Z,19.74
2022-09-25T13:36:57.401Z,19.74
2022-09-25T13:39:50.628Z,19.74
2022-09-25T13:42:25.623Z,19.71
2022-09-25T13:45:07.739Z,19.72
2022-09-25T13:47:58.977Z,19.65
2022-09-25T13:50:34.758Z,19.67
2022-09-25T13:53:24.257Z,19.70
2022-09-25T13:56:19.607Z,19.70
2022-09-25T13:59:04.198Z,19.72
2022-09-25T14:01:45.331Z,19.75
2022-09-25T14:04:24.283Z,19.77
2022-09-25T14:07:01.395Z,19.79
2022-09-25T14:09:32.760Z,19.82
2022-09-25T14:12:08.879Z,19.85
2022-09-25T14:14:45.454Z,19.87
2022-09-25T14:17:17.035Z,19.89
2022-09-25T14:19:48.942Z,19.89
2022-09-25T14:22:24.745Z,19.91
2022-09-25T14:24:54.114Z,19.93
2022-09-25T14:27:26.499Z,19.94
2022-09-25T14:30:05.135Z,19.94
2022-09-25T14:32:55.757Z,19.95
2022-09-25T14:35:36.029Z,19.94
2022-09-25T14:38:37.286Z,19.93
2022-09-25T14:41:39.480Z,19.85
2022-09-25T14:44:32.431Z,19.88
2022-09-25T14:47:00.493Z,19.58
2022-09-25T14:49:30.940Z,19.85
2022-09-25T14:52:02.840Z,19.88
2022-09-25T14:54:36.590Z,19.87
2022-09-25T14:57:07.530Z,19.87
2022-09-25T14:59:42.399Z,19.84
2022-09-25T15:02:18.786Z,19.83
2022-09-25T15:04:46.943Z,19.78
2022-09-25T15:07:18.849Z,19.75
2022-09-25T15:09:48.509Z,19.69
2022-09-25T15:12:21.334Z,19.69
2022-09-25T15:15:04.081Z,19.63
2022-09-25T15:17:31.578Z,19.28
2022-09-25T15:20:04.017Z,19.50
2022-09-25T15:26:19.446Z,19.37
2022-09-25T15:28:49.477Z,19.35
2022-09-25T15:31:17.565Z,19.27
2022-09-25T15:33:45.659Z,19.21
2022-09-25T15:36:20.207Z,19.21
2022-09-25T15:39:00.098Z,19.17
2022-09-25T15:41:28.882Z,19.10
2022-09-25T15:44:20.129Z,19.07
2022-09-25T15:46:51.619Z,19.02
2022-09-25T15:49:25.561Z,19.03
2022-09-25T15:52:00.016Z,19.01
2022-09-25T15:54:34.564Z,18.98
2022-09-25T15:57:06.178Z,18.95
2022-09-25T16:00:02.323Z,18.92
2022-09-25T16:02:53.613Z,18.91
2022-09-25T16:05:32.881Z,18.87
2022-09-25T16:08:17.589Z,18.84
2022-09-25T16:10:50.149Z,18.80
2022-09-25T16:13:21.979Z,18.81
2022-09-25T16:15:54.627Z,18.80
2022-09-25T16:18:35.340Z,18.77
2022-09-25T16:21:20.655Z,18.73
2022-09-25T16:23:56.130Z,18.72
2022-09-25T16:26:27.523Z,18.69
2022-09-25T16:29:03.497Z,18.67
2022-09-25T16:31:36.436Z,18.62
2022-09-25T16:34:05.764Z,18.57
2022-09-25T16:36:43.693Z,18.56
2022-09-25T16:39:41.247Z,18.46
2022-09-25T16:42:31.315Z,18.42
2022-09-25T16:45:05.524Z,18.40
2022-09-25T16:47:35.179Z,18.37
2022-09-25T16:50:03.967Z,18.33
2022-09-25T16:53:03.645Z,18.24
2022-09-25T16:55:38.147Z,18.27
2022-09-25T16:58:09.832Z,18.24
2022-09-25T17:00:37.753Z,18.18
2022-09-25T17:03:07.154Z,18.15
2022-09-25T17:05:36.355Z,18.12
2022-09-25T17:08:17.997Z,18.09
2022-09-25T17:10:52.626Z,18.06
2022-09-25T17:13:27.913Z,18.02
2022-09-25T17:16:00.359Z,17.95
2022-09-25T17:21:48.282Z,17.89
2022-09-25T17:24:24.377Z,17.85
2022-09-25T17:26:54.805Z,17.81
2022-09-25T17:29:25.162Z,17.74
2022-09-25T17:32:02.567Z,17.73
2022-09-25T17:34:32.993Z,17.71
2022-09-25T17:37:14.651Z,17.64
2022-09-25T17:39:43.616Z,17.59
2022-09-25T17:42:23.494Z,17.55
2022-09-25T17:45:24.227Z,17.51
2022-09-25T17:47:56.680Z,17.49
2022-09-25T17:50:35.477Z,17.44
2022-09-25T17:53:20.335Z,17.43
2022-09-25T17:55:54.342Z,17.33
2022-09-25T17:58:26.424Z,17.32
2022-09-25T18:01:00.473Z,17.29
2022-09-25T18:03:30.327Z,17.28
2022-09-25T18:05:59.956Z,17.26
2022-09-25T18:08:27.868Z,17.20
2022-09-25T18:10:58.819Z,17.17
2022-09-25T18:13:26.941Z,17.13
2022-09-25T18:15:57.215Z,17.12
2022-09-25T18:18:25.803Z,17.08
2022-09-25T18:21:11.313Z,17.02
2022-09-25T18:23:40.602Z,16.99
2022-09-25T18:26:10.061Z,16.96
2022-09-25T18:28:38.226Z,16.92
2022-09-25T18:31:06.367Z,16.90
2022-09-25T18:33:34.594Z,16.86
2022-09-25T18:36:02.780Z,16.84
2022-09-25T18:38:31.333Z,16.81
2022-09-25T18:41:03.512Z,16.81
2022-09-25T18:43:31.793Z,16.74
2022-09-25T18:46:01.181Z,16.73
2022-09-25T18:48:29.401Z,16.70
2022-09-25T18:50:57.171Z,16.68
2022-09-25T18:53:25.632Z,16.66
2022-09-25T18:55:54.864Z,16.65
2022-09-25T18:58:24.029Z,16.63
2022-09-25T19:00:51.914Z,16.59
2022-09-25T19:03:19.649Z,16.58
2022-09-25T19:05:58.258Z,16.59
2022-09-25T19:08:26.110Z,16.53
2022-09-25T19:10:53.951Z,16.52
2022-09-25T19:13:22.026Z,16.51
2022-09-25T19:15:51.186Z,16.51
2022-09-25T19:18:19.146Z,16.45
2022-09-25T19:20:48.469Z,16.46
2022-09-25T19:23:16.317Z,16.42
2022-09-25T19:25:53.614Z,16.43
2022-09-25T19:28:23.601Z,16.37
2022-09-25T19:31:00.111Z,16.38
2022-09-25T19:33:31.185Z,16.36
2022-09-25T19:35:59.355Z,16.33
2022-09-25T19:38:27.583Z,16.31
2022-09-25T19:40:55.502Z,16.30
2022-09-25T19:43:24.133Z,16.29
2022-09-25T19:45:53.566Z,16.26
2022-09-25T19:48:24.019Z,16.26
2022-09-25T19:50:52.032Z,16.22
2022-09-25T19:53:19.843Z,16.20
2022-09-25T19:55:51.630Z,16.22
2022-09-25T19:58:23.121Z,16.15
2022-09-25T20:00:51.840Z,16.13
2022-09-25T20:03:20.181Z,16.13
2022-09-25T20:05:49.617Z,16.13
2022-09-25T20:08:17.410Z,16.09
2022-09-25T20:10:45.607Z,16.06
2022-09-25T20:13:14.482Z,16.03
2022-09-25T20:15:44.942Z,16.00
2022-09-25T20:18:12.773Z,15.97
2022-09-25T20:20:40.625Z,15.92
2022-09-25T20:23:10.417Z,15.89
2022-09-25T20:25:39.114Z,15.83
2022-09-25T20:28:06.899Z,15.78
2022-09-25T20:30:35.638Z,15.73
2022-09-25T20:33:04.749Z,15.69
2022-09-25T20:35:32.555Z,15.64
2022-09-25T20:38:00.353Z,15.60
2022-09-25T20:40:29.630Z,15.57
2022-09-25T20:42:57.374Z,15.52
2022-09-25T20:45:25.190Z,15.50
2022-09-25T20:47:55.352Z,15.45
2022-09-25T20:50:23.134Z,15.41
2022-09-25T20:52:51.000Z,15.40
2022-09-25T20:55:20.063Z,15.36
2022-09-25T20:57:49.208Z,15.35
2022-09-25T21:00:19.423Z,15.31
2022-09-25T21:02:47.592Z,15.29
2022-09-25T21:05:15.550Z,15.26
2022-09-25T21:07:43.397Z,15.25
2022-09-25T21:10:11.262Z,15.23
2022-09-25T21:12:39.016Z,15.20
2022-09-25T21:15:09.238Z,15.20
2022-09-25T21:17:36.978Z,15.15
2022-09-25T21:20:05.152Z,15.14
2022-09-25T21:22:32.935Z,15.11
2022-09-25T21:25:00.708Z,15.10
2022-09-25T21:27:30.779Z,15.09
2022-09-25T21:29:58.635Z,15.07
2022-09-25T21:32:30.098Z,15.07
2022-09-25T21:34:57.883Z,15.03
2022-09-25T21:37:25.681Z,15.02
2022-09-25T21:39:53.489Z,15.01
2022-09-25T21:42:22.065Z,15.01
2022-09-25T21:44:50.212Z,14.99
2022-09-25T21:47:19.107Z,14.98
2022-09-25T21:49:48.907Z,14.99
2022-09-25T21:52:16.648Z,14.96
2022-09-25T21:54:44.383Z,14.96
2022-09-25T21:57:12.162Z,14.95
2022-09-25T21:59:41.242Z,14.94
2022-09-25T22:02:09.046Z,14.94
2022-09-25T22:04:36.841Z,14.94
2022-09-25T22:07:06.165Z,14.95
2022-09-25T22:09:34.076Z,14.93
2022-09-25T22:12:02.126Z,14.94
2022-09-25T22:14:29.984Z,14.93
2022-09-25T22:16:57.790Z,14.93
2022-09-25T22:19:27.996Z,14.95
2022-09-25T22:21:57.853Z,14.95
2022-09-25T22:24:27.641Z,14.94
2022-09-25T22:26:56.808Z,14.93
2022-09-25T22:29:24.852Z,14.91
2022-09-25T22:31:53.019Z,14.91
2022-09-25T22:34:22.591Z,14.91
2022-09-25T22:36:56.257Z,14.90
2022-09-25T22:39:27.277Z,14.89
2022-09-25T22:41:56.530Z,14.88
2022-09-25T22:44:24.536Z,14.85
2022-09-25T22:46:52.369Z,14.81
2022-09-25T22:49:20.189Z,14.79
2022-09-25T22:51:47.935Z,14.75
2022-09-25T22:54:16.774Z,14.71
2022-09-25T22:56:45.971Z,14.68
2022-09-25T22:59:16.092Z,14.62
2022-09-25T23:01:46.523Z,14.57
2022-09-25T23:04:16.070Z,14.51
2022-09-25T23:06:44.069Z,14.46
2022-09-25T23:09:14.071Z,14.42
2022-09-25T23:11:42.303Z,14.34
2022-09-25T23:14:16.800Z,14.32
2022-09-25T23:16:45.648Z,14.26
2022-09-25T23:19:13.949Z,14.21
2022-09-25T23:21:42.631Z,14.17
2022-09-25T23:24:13.362Z,14.13
2022-09-25T23:26:41.213Z,14.06
2022-09-25T23:29:09.586Z,14.03
2022-09-25T23:31:38.717Z,13.99
2022-09-25T23:34:06.493Z,13.94
2022-09-25T23:36:36.053Z,13.91
2022-09-25T23:39:05.499Z,13.90
2022-09-25T23:41:35.706Z,13.87
2022-09-25T23:44:05.757Z,13.86
2022-09-25T23:46:36.234Z,13.83
2022-09-25T23:49:05.873Z,13.80
2022-09-25T23:51:34.114Z,13.78
2022-09-25T23:54:02.982Z,13.77
2022-09-25T23:56:33.513Z,13.75
2022-09-25T23:59:02.224Z,13.73
